Impacts TAF Board
For situational awareness. Not to be used for flight planning purposes.
IDs:

KPIT - Pittsburgh Intl, PA, US

Issued at 1735 UTC 22 Sep 2018
Updated at 1856 UTC 22 Sep 2018
Potential Impact None Slight Moderate High
Time<<23/07Z 23/08Z 23/09Z 23/10Z 23/11Z 23/12Z 23/13Z 23/14Z 23/15Z 23/16Z 23/17Z 23/18Z 23/19Z>>
Type PRVL PRVL PRVL PRVL PRVL PRVL PRVL PRVL PRVL PRVL PRVL PRVL PRVL
VIS >6 >6 >6 >6 5 5 5 >6 >6 >6 >6 >6 >6
CIG 150 150 150 150 100 100 100 -- -- -- -- -- --
Cover OVC OVC OVC OVC BKN BKN BKN SCT SCT SCT SCT SCT SCT
FltCat VFR VFR VFR VFR MVFR MVFR MVFR VFR VFR VFR VFR VFR VFR
WX -- -- -- -- BR BR BR -- -- -- -- -- --
WDir 20 20 20 20 30 30 30 90 90 90 90 90 90
WSpd 6 6 6 6 4 4 4 5 5 5 5 5 5
WGst -- -- -- -- -- -- -- -- -- -- -- -- --
Raw TAF
KPIT 221735Z 2218/2324 02006KT P6SM SCT025 OVC150
  FM231100 03004KT 5SM BR BKN100
  FM231400 09005KT P6SM SCT030


METAR Board
Radar Display
Forecast Discussion
For situational awareness. Not to be used for flight planning purposes.